sensor_id;sensor_type;location;lat;lon;timestamp;P1;durP1;ratioP1;P2;durP2;ratioP2
68792;SDS011;55778;54.346;10.210;2023-03-01T00:02:10;44.25;;;16.30;;
68792;SDS011;55778;54.346;10.210;2023-03-01T00:04:35;40.33;;;15.55;;
68792;SDS011;55778;54.346;10.210;2023-03-01T00:07:01;45.85;;;16.60;;
68792;SDS011;55778;54.346;10.210;2023-03-01T00:09:26;40.83;;;15.50;;
68792;SDS011;55778;54.346;10.210;2023-03-01T00:11:51;39.42;;;15.75;;
68792;SDS011;55778;54.346;10.210;2023-03-01T00:14:17;42.72;;;16.00;;
68792;SDS011;55778;54.346;10.210;2023-03-01T00:16:43;45.45;;;16.48;;
68792;SDS011;55778;54.346;10.210;2023-03-01T00:19:10;42.05;;;16.10;;
68792;SDS011;55778;54.346;10.210;2023-03-01T00:21:38;39.70;;;15.77;;
68792;SDS011;55778;54.346;10.210;2023-03-01T00:24:03;38.67;;;15.88;;
68792;SDS011;55778;54.346;10.210;2023-03-01T00:26:29;40.95;;;15.40;;
68792;SDS011;55778;54.346;10.210;2023-03-01T00:28:56;49.30;;;16.70;;
68792;SDS011;55778;54.346;10.210;2023-03-01T00:31:23;42.63;;;14.63;;
68792;SDS011;55778;54.346;10.210;2023-03-01T00:33:53;43.38;;;14.82;;
68792;SDS011;55778;54.346;10.210;2023-03-01T00:36:23;41.45;;;14.73;;
68792;SDS011;55778;54.346;10.210;2023-03-01T00:38:50;43.53;;;14.85;;
68792;SDS011;55778;54.346;10.210;2023-03-01T00:41:16;44.63;;;16.40;;
68792;SDS011;55778;54.346;10.210;2023-03-01T00:43:43;44.83;;;15.77;;
68792;SDS011;55778;54.346;10.210;2023-03-01T00:46:11;49.70;;;16.73;;
68792;SDS011;55778;54.346;10.210;2023-03-01T00:48:41;45.03;;;16.08;;
68792;SDS011;55778;54.346;10.210;2023-03-01T00:51:07;43.55;;;15.43;;
68792;SDS011;55778;54.346;10.210;2023-03-01T00:53:44;44.10;;;16.48;;
68792;SDS011;55778;54.346;10.210;2023-03-01T00:56:11;51.33;;;16.98;;
68792;SDS011;55778;54.346;10.210;2023-03-01T00:58:37;42.72;;;15.27;;
68792;SDS011;55778;54.346;10.210;2023-03-01T01:01:10;49.95;;;17.05;;
68792;SDS011;55778;54.346;10.210;2023-03-01T01:03:47;48.55;;;16.88;;
68792;SDS011;55778;54.346;10.210;2023-03-01T01:06:22;48.50;;;16.90;;
68792;SDS011;55778;54.346;10.210;2023-03-01T01:08:50;43.45;;;14.93;;
68792;SDS011;55778;54.346;10.210;2023-03-01T01:11:16;40.90;;;14.80;;
68792;SDS011;55778;54.346;10.210;2023-03-01T01:13:44;47.33;;;15.82;;
68792;SDS011;55778;54.346;10.210;2023-03-01T01:16:11;48.60;;;16.50;;
68792;SDS011;55778;54.346;10.210;2023-03-01T01:18:36;45.45;;;15.73;;
68792;SDS011;55778;54.346;10.210;2023-03-01T01:21:12;59.28;;;16.70;;
68792;SDS011;55778;54.346;10.210;2023-03-01T01:23:40;55.65;;;16.98;;
68792;SDS011;55778;54.346;10.210;2023-03-01T01:26:07;52.03;;;17.20;;
68792;SDS011;55778;54.346;10.210;2023-03-01T01:28:34;52.00;;;17.48;;
68792;SDS011;55778;54.346;10.210;2023-03-01T01:30:59;52.53;;;17.38;;
68792;SDS011;55778;54.346;10.210;2023-03-01T01:33:25;50.13;;;18.23;;
68792;SDS011;55778;54.346;10.210;2023-03-01T01:35:51;51.33;;;17.00;;
68792;SDS011;55778;54.346;10.210;2023-03-01T01:38:17;52.58;;;18.00;;
68792;SDS011;55778;54.346;10.210;2023-03-01T01:40:46;53.65;;;17.70;;
68792;SDS011;55778;54.346;10.210;2023-03-01T01:43:22;56.30;;;18.98;;
68792;SDS011;55778;54.346;10.210;2023-03-01T01:45:50;60.13;;;18.00;;
68792;SDS011;55778;54.346;10.210;2023-03-01T01:48:20;52.03;;;17.40;;
68792;SDS011;55778;54.346;10.210;2023-03-01T01:50:50;54.03;;;17.88;;
68792;SDS011;55778;54.346;10.210;2023-03-01T01:53:22;58.95;;;19.63;;
68792;SDS011;55778;54.346;10.210;2023-03-01T01:55:51;54.08;;;17.88;;
68792;SDS011;55778;54.346;10.210;2023-03-01T01:58:23;45.95;;;15.18;;
68792;SDS011;55778;54.346;10.210;2023-03-01T02:00:52;60.33;;;17.60;;
68792;SDS011;55778;54.346;10.210;2023-03-01T02:03:18;66.20;;;18.83;;
68792;SDS011;55778;54.346;10.210;2023-03-01T02:05:50;49.53;;;16.52;;
68792;SDS011;55778;54.346;10.210;2023-03-01T02:08:20;55.42;;;17.77;;
68792;SDS011;55778;54.346;10.210;2023-03-01T02:10:48;61.30;;;18.85;;
68792;SDS011;55778;54.346;10.210;2023-03-01T02:13:15;161.80;;;23.33;;
68792;SDS011;55778;54.346;10.210;2023-03-01T02:15:40;152.05;;;24.60;;
68792;SDS011;55778;54.346;10.210;2023-03-01T02:18:08;198.88;;;25.42;;
68792;SDS011;55778;54.346;10.210;2023-03-01T02:23:04;56.92;;;17.67;;
68792;SDS011;55778;54.346;10.210;2023-03-01T02:25:35;72.30;;;20.00;;
68792;SDS011;55778;54.346;10.210;2023-03-01T02:30:40;68.05;;;20.85;;
68792;SDS011;55778;54.346;10.210;2023-03-01T02:33:28;80.85;;;21.38;;
68792;SDS011;55778;54.346;10.210;2023-03-01T02:35:58;245.27;;;26.55;;
68792;SDS011;55778;54.346;10.210;2023-03-01T02:38:26;168.35;;;23.83;;
68792;SDS011;55778;54.346;10.210;2023-03-01T02:40:52;212.85;;;25.13;;
68792;SDS011;55778;54.346;10.210;2023-03-01T02:43:19;208.85;;;26.05;;
68792;SDS011;55778;54.346;10.210;2023-03-01T02:45:49;233.02;;;25.92;;
68792;SDS011;55778;54.346;10.210;2023-03-01T02:48:15;252.98;;;25.75;;
68792;SDS011;55778;54.346;10.210;2023-03-01T02:50:52;201.05;;;22.98;;
68792;SDS011;55778;54.346;10.210;2023-03-01T02:56:37;211.75;;;21.60;;
68792;SDS011;55778;54.346;10.210;2023-03-01T02:59:02;217.70;;;21.55;;
68792;SDS011;55778;54.346;10.210;2023-03-01T03:01:28;252.48;;;26.67;;
68792;SDS011;55778;54.346;10.210;2023-03-01T03:04:07;213.27;;;22.48;;
68792;SDS011;55778;54.346;10.210;2023-03-01T03:06:35;224.25;;;22.90;;
68792;SDS011;55778;54.346;10.210;2023-03-01T03:09:02;199.95;;;19.77;;
68792;SDS011;55778;54.346;10.210;2023-03-01T03:11:29;175.00;;;18.58;;
68792;SDS011;55778;54.346;10.210;2023-03-01T03:13:55;147.05;;;18.65;;
68792;SDS011;55778;54.346;10.210;2023-03-01T03:16:20;195.80;;;19.42;;
68792;SDS011;55778;54.346;10.210;2023-03-01T03:18:49;175.77;;;19.50;;
68792;SDS011;55778;54.346;10.210;2023-03-01T03:21:14;263.58;;;25.58;;
68792;SDS011;55778;54.346;10.210;2023-03-01T03:23:41;178.35;;;20.85;;
68792;SDS011;55778;54.346;10.210;2023-03-01T03:26:06;268.27;;;24.90;;
68792;SDS011;55778;54.346;10.210;2023-03-01T03:28:38;196.80;;;22.67;;
68792;SDS011;55778;54.346;10.210;2023-03-01T03:31:05;177.43;;;19.15;;
68792;SDS011;55778;54.346;10.210;2023-03-01T03:33:31;138.80;;;16.00;;
68792;SDS011;55778;54.346;10.210;2023-03-01T03:35:57;134.85;;;16.40;;
68792;SDS011;55778;54.346;10.210;2023-03-01T03:38:23;123.55;;;17.92;;
68792;SDS011;55778;54.346;10.210;2023-03-01T03:40:55;143.65;;;18.27;;
68792;SDS011;55778;54.346;10.210;2023-03-01T03:43:29;59.40;;;13.05;;
68792;SDS011;55778;54.346;10.210;2023-03-01T03:45:56;153.40;;;18.77;;
68792;SDS011;55778;54.346;10.210;2023-03-01T03:48:22;132.90;;;16.85;;
68792;SDS011;55778;54.346;10.210;2023-03-01T03:50:57;161.40;;;19.60;;
68792;SDS011;55778;54.346;10.210;2023-03-01T03:53:23;121.50;;;15.88;;
68792;SDS011;55778;54.346;10.210;2023-03-01T03:55:50;194.63;;;18.88;;
68792;SDS011;55778;54.346;10.210;2023-03-01T03:58:17;143.05;;;16.42;;
68792;SDS011;55778;54.346;10.210;2023-03-01T04:00:45;45.47;;;12.63;;
68792;SDS011;55778;54.346;10.210;2023-03-01T04:03:12;218.48;;;20.55;;
68792;SDS011;55778;54.346;10.210;2023-03-01T04:05:39;83.50;;;14.77;;
68792;SDS011;55778;54.346;10.210;2023-03-01T04:08:06;104.95;;;15.18;;
68792;SDS011;55778;54.346;10.210;2023-03-01T04:10:36;39.50;;;12.75;;
68792;SDS011;55778;54.346;10.210;2023-03-01T04:13:07;49.85;;;12.70;;
68792;SDS011;55778;54.346;10.210;2023-03-01T04:15:35;199.80;;;19.30;;
68792;SDS011;55778;54.346;10.210;2023-03-01T04:18:01;174.32;;;18.85;;
68792;SDS011;55778;54.346;10.210;2023-03-01T04:20:28;98.20;;;15.43;;
68792;SDS011;55778;54.346;10.210;2023-03-01T04:23:03;175.73;;;17.45;;
68792;SDS011;55778;54.346;10.210;2023-03-01T04:25:58;189.88;;;19.33;;
68792;SDS011;55778;54.346;10.210;2023-03-01T04:28:25;201.10;;;20.73;;
68792;SDS011;55778;54.346;10.210;2023-03-01T04:31:05;167.85;;;18.85;;
68792;SDS011;55778;54.346;10.210;2023-03-01T04:33:39;157.25;;;16.20;;
68792;SDS011;55778;54.346;10.210;2023-03-01T04:38:34;114.68;;;13.50;;
68792;SDS011;55778;54.346;10.210;2023-03-01T04:41:02;147.60;;;15.32;;
68792;SDS011;55778;54.346;10.210;2023-03-01T04:43:28;109.82;;;13.98;;
68792;SDS011;55778;54.346;10.210;2023-03-01T04:45:53;96.15;;;13.52;;
68792;SDS011;55778;54.346;10.210;2023-03-01T04:48:19;79.15;;;14.43;;
68792;SDS011;55778;54.346;10.210;2023-03-01T04:50:44;76.65;;;13.02;;
68792;SDS011;55778;54.346;10.210;2023-03-01T04:53:09;186.25;;;17.48;;
68792;SDS011;55778;54.346;10.210;2023-03-01T04:55:35;220.85;;;19.65;;
68792;SDS011;55778;54.346;10.210;2023-03-01T04:58:00;234.73;;;17.67;;
68792;SDS011;55778;54.346;10.210;2023-03-01T05:00:26;157.25;;;14.82;;
68792;SDS011;55778;54.346;10.210;2023-03-01T05:05:22;36.53;;;10.23;;
68792;SDS011;55778;54.346;10.210;2023-03-01T05:07:55;174.13;;;16.80;;
68792;SDS011;55778;54.346;10.210;2023-03-01T05:10:22;105.93;;;13.43;;
68792;SDS011;55778;54.346;10.210;2023-03-01T05:12:48;36.05;;;11.55;;
68792;SDS011;55778;54.346;10.210;2023-03-01T05:15:14;73.65;;;13.35;;
68792;SDS011;55778;54.346;10.210;2023-03-01T05:17:39;138.25;;;17.15;;
68792;SDS011;55778;54.346;10.210;2023-03-01T05:20:05;56.60;;;10.68;;
68792;SDS011;55778;54.346;10.210;2023-03-01T05:22:34;66.05;;;10.82;;
68792;SDS011;55778;54.346;10.210;2023-03-01T05:25:00;21.85;;;8.95;;
68792;SDS011;55778;54.346;10.210;2023-03-01T05:27:25;125.75;;;13.20;;
68792;SDS011;55778;54.346;10.210;2023-03-01T05:29:51;158.55;;;16.00;;
68792;SDS011;55778;54.346;10.210;2023-03-01T05:32:16;94.40;;;13.75;;
68792;SDS011;55778;54.346;10.210;2023-03-01T05:34:42;117.57;;;13.13;;
68792;SDS011;55778;54.346;10.210;2023-03-01T05:37:07;162.07;;;14.70;;
68792;SDS011;55778;54.346;10.210;2023-03-01T05:39:34;185.73;;;16.45;;
68792;SDS011;55778;54.346;10.210;2023-03-01T05:42:00;123.63;;;13.60;;
68792;SDS011;55778;54.346;10.210;2023-03-01T05:44:26;192.00;;;17.02;;
68792;SDS011;55778;54.346;10.210;2023-03-01T05:46:53;51.33;;;10.43;;
68792;SDS011;55778;54.346;10.210;2023-03-01T05:49:19;31.73;;;9.77;;
68792;SDS011;55778;54.346;10.210;2023-03-01T05:51:48;37.65;;;10.40;;
68792;SDS011;55778;54.346;10.210;2023-03-01T05:54:15;82.18;;;11.15;;
68792;SDS011;55778;54.346;10.210;2023-03-01T05:56:41;87.47;;;12.13;;
68792;SDS011;55778;54.346;10.210;2023-03-01T05:59:06;139.30;;;16.63;;
68792;SDS011;55778;54.346;10.210;2023-03-01T06:01:32;157.27;;;15.93;;
68792;SDS011;55778;54.346;10.210;2023-03-01T06:03:58;103.28;;;11.88;;
68792;SDS011;55778;54.346;10.210;2023-03-01T06:06:24;37.85;;;9.90;;
68792;SDS011;55778;54.346;10.210;2023-03-01T06:08:50;40.13;;;10.43;;
68792;SDS011;55778;54.346;10.210;2023-03-01T06:11:16;28.88;;;9.32;;
68792;SDS011;55778;54.346;10.210;2023-03-01T06:13:42;76.55;;;11.77;;
68792;SDS011;55778;54.346;10.210;2023-03-01T06:16:08;111.88;;;13.70;;
68792;SDS011;55778;54.346;10.210;2023-03-01T06:18:34;110.00;;;13.27;;
68792;SDS011;55778;54.346;10.210;2023-03-01T06:20:59;29.77;;;9.25;;
68792;SDS011;55778;54.346;10.210;2023-03-01T06:23:25;41.58;;;9.98;;
68792;SDS011;55778;54.346;10.210;2023-03-01T06:25:50;25.83;;;8.57;;
68792;SDS011;55778;54.346;10.210;2023-03-01T06:28:16;85.97;;;11.70;;
68792;SDS011;55778;54.346;10.210;2023-03-01T06:30:41;86.25;;;12.50;;
68792;SDS011;55778;54.346;10.210;2023-03-01T06:33:07;127.88;;;13.57;;
68792;SDS011;55778;54.346;10.210;2023-03-01T06:35:32;55.15;;;10.25;;
68792;SDS011;55778;54.346;10.210;2023-03-01T06:38:00;93.20;;;13.27;;
68792;SDS011;55778;54.346;10.210;2023-03-01T06:40:26;43.58;;;9.63;;
68792;SDS011;55778;54.346;10.210;2023-03-01T06:42:52;104.45;;;11.73;;
68792;SDS011;55778;54.346;10.210;2023-03-01T06:45:18;115.43;;;14.73;;
68792;SDS011;55778;54.346;10.210;2023-03-01T06:47:44;102.93;;;13.50;;
68792;SDS011;55778;54.346;10.210;2023-03-01T06:50:10;37.63;;;10.85;;
68792;SDS011;55778;54.346;10.210;2023-03-01T06:52:36;39.28;;;12.15;;
68792;SDS011;55778;54.346;10.210;2023-03-01T06:55:02;116.25;;;14.48;;
68792;SDS011;55778;54.346;10.210;2023-03-01T06:57:27;30.48;;;10.07;;
68792;SDS011;55778;54.346;10.210;2023-03-01T06:59:55;158.70;;;15.88;;
68792;SDS011;55778;54.346;10.210;2023-03-01T07:02:21;135.90;;;14.55;;
68792;SDS011;55778;54.346;10.210;2023-03-01T07:04:48;113.88;;;13.20;;
68792;SDS011;55778;54.346;10.210;2023-03-01T07:07:17;126.97;;;13.70;;
68792;SDS011;55778;54.346;10.210;2023-03-01T07:09:43;171.82;;;16.33;;
68792;SDS011;55778;54.346;10.210;2023-03-01T07:12:09;124.28;;;13.10;;
68792;SDS011;55778;54.346;10.210;2023-03-01T07:14:35;81.35;;;11.88;;
68792;SDS011;55778;54.346;10.210;2023-03-01T07:17:01;95.18;;;13.63;;
68792;SDS011;55778;54.346;10.210;2023-03-01T07:19:26;79.30;;;11.00;;
68792;SDS011;55778;54.346;10.210;2023-03-01T07:21:52;35.50;;;9.65;;
68792;SDS011;55778;54.346;10.210;2023-03-01T07:24:18;72.30;;;12.02;;
68792;SDS011;55778;54.346;10.210;2023-03-01T07:26:43;76.57;;;10.60;;
68792;SDS011;55778;54.346;10.210;2023-03-01T07:29:09;92.15;;;12.20;;
68792;SDS011;55778;54.346;10.210;2023-03-01T07:31:35;57.38;;;11.55;;
68792;SDS011;55778;54.346;10.210;2023-03-01T07:34:01;92.05;;;10.77;;
68792;SDS011;55778;54.346;10.210;2023-03-01T07:36:28;136.60;;;14.13;;
68792;SDS011;55778;54.346;10.210;2023-03-01T07:38:53;25.17;;;9.45;;
68792;SDS011;55778;54.346;10.210;2023-03-01T07:41:20;33.60;;;10.10;;
68792;SDS011;55778;54.346;10.210;2023-03-01T07:43:46;63.38;;;11.35;;
68792;SDS011;55778;54.346;10.210;2023-03-01T07:46:12;70.40;;;9.85;;
68792;SDS011;55778;54.346;10.210;2023-03-01T07:48:37;68.38;;;10.90;;
68792;SDS011;55778;54.346;10.210;2023-03-01T07:51:03;61.00;;;9.25;;
68792;SDS011;55778;54.346;10.210;2023-03-01T07:53:30;76.10;;;9.30;;
68792;SDS011;55778;54.346;10.210;2023-03-01T07:56:08;67.00;;;8.15;;
68792;SDS011;55778;54.346;10.210;2023-03-01T07:58:40;97.35;;;10.23;;
68792;SDS011;55778;54.346;10.210;2023-03-01T08:01:07;49.20;;;8.27;;
68792;SDS011;55778;54.346;10.210;2023-03-01T08:03:35;47.22;;;8.30;;
68792;SDS011;55778;54.346;10.210;2023-03-01T08:06:02;70.28;;;9.15;;
68792;SDS011;55778;54.346;10.210;2023-03-01T08:08:29;81.88;;;10.80;;
68792;SDS011;55778;54.346;10.210;2023-03-01T08:10:58;62.50;;;9.90;;
68792;SDS011;55778;54.346;10.210;2023-03-01T08:13:24;57.17;;;9.57;;
68792;SDS011;55778;54.346;10.210;2023-03-01T08:15:50;37.65;;;8.68;;
68792;SDS011;55778;54.346;10.210;2023-03-01T08:18:17;95.30;;;11.00;;
68792;SDS011;55778;54.346;10.210;2023-03-01T08:20:44;41.45;;;7.93;;
68792;SDS011;55778;54.346;10.210;2023-03-01T08:23:09;39.97;;;8.63;;
68792;SDS011;55778;54.346;10.210;2023-03-01T08:25:35;66.85;;;9.50;;
68792;SDS011;55778;54.346;10.210;2023-03-01T08:28:00;54.47;;;9.05;;
68792;SDS011;55778;54.346;10.210;2023-03-01T08:30:26;55.38;;;8.65;;
68792;SDS011;55778;54.346;10.210;2023-03-01T08:32:51;26.45;;;7.05;;
68792;SDS011;55778;54.346;10.210;2023-03-01T08:35:17;74.25;;;9.57;;
68792;SDS011;55778;54.346;10.210;2023-03-01T08:37:42;49.38;;;8.73;;
68792;SDS011;55778;54.346;10.210;2023-03-01T08:40:08;29.10;;;7.88;;
68792;SDS011;55778;54.346;10.210;2023-03-01T08:42:37;79.93;;;11.05;;
68792;SDS011;55778;54.346;10.210;2023-03-01T08:45:03;40.60;;;8.80;;
68792;SDS011;55778;54.346;10.210;2023-03-01T08:47:29;34.30;;;9.93;;
68792;SDS011;55778;54.346;10.210;2023-03-01T08:49:54;76.03;;;11.45;;
68792;SDS011;55778;54.346;10.210;2023-03-01T08:52:20;24.10;;;6.97;;
68792;SDS011;55778;54.346;10.210;2023-03-01T08:54:49;40.42;;;8.68;;
68792;SDS011;55778;54.346;10.210;2023-03-01T08:57:14;56.63;;;9.63;;
68792;SDS011;55778;54.346;10.210;2023-03-01T08:59:40;39.80;;;9.15;;
68792;SDS011;55778;54.346;10.210;2023-03-01T09:02:06;21.98;;;7.80;;
68792;SDS011;55778;54.346;10.210;2023-03-01T09:04:37;18.25;;;7.45;;
68792;SDS011;55778;54.346;10.210;2023-03-01T09:07:03;19.17;;;7.45;;
68792;SDS011;55778;54.346;10.210;2023-03-01T09:09:28;17.35;;;7.20;;
68792;SDS011;55778;54.346;10.210;2023-03-01T09:11:54;15.77;;;6.82;;
68792;SDS011;55778;54.346;10.210;2023-03-01T09:14:19;16.33;;;6.53;;
68792;SDS011;55778;54.346;10.210;2023-03-01T09:16:45;15.38;;;7.13;;
68792;SDS011;55778;54.346;10.210;2023-03-01T09:19:11;13.02;;;6.10;;
68792;SDS011;55778;54.346;10.210;2023-03-01T09:21:37;21.00;;;5.40;;
68792;SDS011;55778;54.346;10.210;2023-03-01T09:24:03;12.05;;;5.30;;
68792;SDS011;55778;54.346;10.210;2023-03-01T09:26:28;27.77;;;6.90;;
68792;SDS011;55778;54.346;10.210;2023-03-01T09:28:54;39.15;;;8.32;;
68792;SDS011;55778;54.346;10.210;2023-03-01T09:31:21;27.38;;;7.45;;
68792;SDS011;55778;54.346;10.210;2023-03-01T09:33:48;17.23;;;6.45;;
68792;SDS011;55778;54.346;10.210;2023-03-01T09:36:17;12.27;;;6.05;;
68792;SDS011;55778;54.346;10.210;2023-03-01T09:38:45;34.10;;;7.85;;
68792;SDS011;55778;54.346;10.210;2023-03-01T09:43:56;48.70;;;8.20;;
68792;SDS011;55778;54.346;10.210;2023-03-01T09:46:28;28.15;;;7.28;;
68792;SDS011;55778;54.346;10.210;2023-03-01T09:49:03;58.95;;;7.55;;
68792;SDS011;55778;54.346;10.210;2023-03-01T09:51:35;11.48;;;5.28;;
68792;SDS011;55778;54.346;10.210;2023-03-01T09:54:02;15.48;;;6.50;;
68792;SDS011;55778;54.346;10.210;2023-03-01T09:59:15;15.30;;;6.15;;
68792;SDS011;55778;54.346;10.210;2023-03-01T10:04:44;31.10;;;7.43;;
68792;SDS011;55778;54.346;10.210;2023-03-01T10:07:21;17.70;;;7.47;;
68792;SDS011;55778;54.346;10.210;2023-03-01T10:09:54;20.38;;;6.68;;
68792;SDS011;55778;54.346;10.210;2023-03-01T10:12:20;22.08;;;7.80;;
68792;SDS011;55778;54.346;10.210;2023-03-01T10:17:36;17.70;;;7.75;;
68792;SDS011;55778;54.346;10.210;2023-03-01T10:22:39;21.80;;;8.98;;
68792;SDS011;55778;54.346;10.210;2023-03-01T10:25:04;22.90;;;8.98;;
68792;SDS011;55778;54.346;10.210;2023-03-01T10:27:43;24.58;;;10.35;;
68792;SDS011;55778;54.346;10.210;2023-03-01T10:33:20;22.42;;;8.40;;
68792;SDS011;55778;54.346;10.210;2023-03-01T10:35:50;43.40;;;10.43;;
68792;SDS011;55778;54.346;10.210;2023-03-01T10:38:17;25.83;;;9.32;;
68792;SDS011;55778;54.346;10.210;2023-03-01T10:43:24;22.45;;;8.05;;
68792;SDS011;55778;54.346;10.210;2023-03-01T10:45:51;22.08;;;9.07;;
68792;SDS011;55778;54.346;10.210;2023-03-01T10:48:21;22.50;;;9.93;;
68792;SDS011;55778;54.346;10.210;2023-03-01T10:51:12;22.17;;;8.75;;
68792;SDS011;55778;54.346;10.210;2023-03-01T10:53:42;20.98;;;8.50;;
68792;SDS011;55778;54.346;10.210;2023-03-01T10:56:13;19.40;;;8.93;;
68792;SDS011;55778;54.346;10.210;2023-03-01T11:01:30;25.67;;;8.50;;
68792;SDS011;55778;54.346;10.210;2023-03-01T11:06:30;15.55;;;7.15;;
68792;SDS011;55778;54.346;10.210;2023-03-01T11:08:56;20.40;;;7.22;;
68792;SDS011;55778;54.346;10.210;2023-03-01T11:11:34;16.55;;;6.85;;
68792;SDS011;55778;54.346;10.210;2023-03-01T11:14:01;20.00;;;7.85;;
68792;SDS011;55778;54.346;10.210;2023-03-01T11:16:35;16.08;;;8.10;;
68792;SDS011;55778;54.346;10.210;2023-03-01T11:21:34;19.50;;;8.35;;
68792;SDS011;55778;54.346;10.210;2023-03-01T11:24:11;18.40;;;8.18;;
68792;SDS011;55778;54.346;10.210;2023-03-01T11:26:40;15.50;;;7.28;;
68792;SDS011;55778;54.346;10.210;2023-03-01T11:29:51;14.90;;;6.37;;
68792;SDS011;55778;54.346;10.210;2023-03-01T11:32:08;17.90;;;7.78;;
68792;SDS011;55778;54.346;10.210;2023-03-01T11:34:48;14.57;;;7.13;;
68792;SDS011;55778;54.346;10.210;2023-03-01T11:40:27;15.07;;;6.70;;
68792;SDS011;55778;54.346;10.210;2023-03-01T11:45:39;17.13;;;8.00;;
68792;SDS011;55778;54.346;10.210;2023-03-01T11:50:57;17.45;;;7.63;;
68792;SDS011;55778;54.346;10.210;2023-03-01T12:04:16;14.48;;;7.30;;
68792;SDS011;55778;54.346;10.210;2023-03-01T12:09:21;14.02;;;7.07;;
68792;SDS011;55778;54.346;10.210;2023-03-01T12:12:11;12.95;;;6.43;;
68792;SDS011;55778;54.346;10.210;2023-03-01T12:20:12;12.10;;;6.40;;
68792;SDS011;55778;54.346;10.210;2023-03-01T12:48:09;13.68;;;6.88;;
68792;SDS011;55778;54.346;10.210;2023-03-01T12:50:47;14.30;;;6.47;;
68792;SDS011;55778;54.346;10.210;2023-03-01T12:53:25;16.38;;;6.90;;
68792;SDS011;55778;54.346;10.210;2023-03-01T12:56:16;14.40;;;6.57;;
68792;SDS011;55778;54.346;10.210;2023-03-01T13:07:25;17.58;;;7.68;;
68792;SDS011;55778;54.346;10.210;2023-03-01T13:10:17;19.17;;;6.63;;
68792;SDS011;55778;54.346;10.210;2023-03-01T13:17:48;15.45;;;6.68;;
68792;SDS011;55778;54.346;10.210;2023-03-01T13:20:15;14.05;;;7.13;;
68792;SDS011;55778;54.346;10.210;2023-03-01T13:22:42;13.95;;;6.78;;
68792;SDS011;55778;54.346;10.210;2023-03-01T13:25:14;13.85;;;6.85;;
68792;SDS011;55778;54.346;10.210;2023-03-01T13:27:43;15.18;;;7.10;;
68792;SDS011;55778;54.346;10.210;2023-03-01T13:35:56;12.35;;;6.47;;
68792;SDS011;55778;54.346;10.210;2023-03-01T13:38:36;14.20;;;7.05;;
68792;SDS011;55778;54.346;10.210;2023-03-01T13:41:02;14.75;;;6.72;;
68792;SDS011;55778;54.346;10.210;2023-03-01T13:43:38;14.20;;;6.70;;
68792;SDS011;55778;54.346;10.210;2023-03-01T13:46:38;14.38;;;6.90;;
68792;SDS011;55778;54.346;10.210;2023-03-01T13:48:57;14.20;;;7.07;;
68792;SDS011;55778;54.346;10.210;2023-03-01T13:51:25;14.18;;;6.90;;
68792;SDS011;55778;54.346;10.210;2023-03-01T13:53:53;13.32;;;6.55;;
68792;SDS011;55778;54.346;10.210;2023-03-01T13:56:25;14.90;;;6.78;;
68792;SDS011;55778;54.346;10.210;2023-03-01T13:58:54;14.40;;;6.50;;
68792;SDS011;55778;54.346;10.210;2023-03-01T14:01:28;15.52;;;6.93;;
68792;SDS011;55778;54.346;10.210;2023-03-01T14:03:56;15.82;;;7.57;;
68792;SDS011;55778;54.346;10.210;2023-03-01T14:06:24;16.15;;;6.95;;
68792;SDS011;55778;54.346;10.210;2023-03-01T14:08:59;16.02;;;6.70;;
68792;SDS011;55778;54.346;10.210;2023-03-01T14:11:34;18.23;;;7.32;;
68792;SDS011;55778;54.346;10.210;2023-03-01T14:17:25;16.40;;;6.53;;
68792;SDS011;55778;54.346;10.210;2023-03-01T14:19:59;16.27;;;7.20;;
68792;SDS011;55778;54.346;10.210;2023-03-01T14:22:30;15.45;;;6.90;;
68792;SDS011;55778;54.346;10.210;2023-03-01T14:25:03;27.70;;;7.13;;
68792;SDS011;55778;54.346;10.210;2023-03-01T14:27:51;24.48;;;6.93;;
68792;SDS011;55778;54.346;10.210;2023-03-01T14:33:00;58.47;;;8.90;;
68792;SDS011;55778;54.346;10.210;2023-03-01T14:35:28;20.50;;;7.05;;
68792;SDS011;55778;54.346;10.210;2023-03-01T14:37:55;27.38;;;8.00;;
68792;SDS011;55778;54.346;10.210;2023-03-01T14:40:30;15.32;;;6.53;;
68792;SDS011;55778;54.346;10.210;2023-03-01T14:43:03;21.35;;;7.10;;
68792;SDS011;55778;54.346;10.210;2023-03-01T14:45:35;25.05;;;7.22;;
68792;SDS011;55778;54.346;10.210;2023-03-01T14:48:02;23.58;;;8.05;;
68792;SDS011;55778;54.346;10.210;2023-03-01T14:50:40;40.75;;;8.40;;
68792;SDS011;55778;54.346;10.210;2023-03-01T14:53:07;38.88;;;9.43;;
68792;SDS011;55778;54.346;10.210;2023-03-01T14:55:46;32.00;;;7.30;;
68792;SDS011;55778;54.346;10.210;2023-03-01T14:58:18;23.45;;;8.38;;
68792;SDS011;55778;54.346;10.210;2023-03-01T15:00:53;42.28;;;8.20;;
68792;SDS011;55778;54.346;10.210;2023-03-01T15:03:24;28.08;;;8.52;;
68792;SDS011;55778;54.346;10.210;2023-03-01T15:06:17;22.73;;;7.93;;
68792;SDS011;55778;54.346;10.210;2023-03-01T15:08:45;33.70;;;8.27;;
68792;SDS011;55778;54.346;10.210;2023-03-01T15:13:39;21.38;;;8.23;;
68792;SDS011;55778;54.346;10.210;2023-03-01T15:16:06;37.42;;;8.73;;
68792;SDS011;55778;54.346;10.210;2023-03-01T15:18:37;38.55;;;8.57;;
68792;SDS011;55778;54.346;10.210;2023-03-01T15:21:09;27.85;;;7.57;;
68792;SDS011;55778;54.346;10.210;2023-03-01T15:23:57;30.50;;;7.47;;
68792;SDS011;55778;54.346;10.210;2023-03-01T15:26:28;27.73;;;7.28;;
68792;SDS011;55778;54.346;10.210;2023-03-01T15:28:57;45.70;;;8.80;;
68792;SDS011;55778;54.346;10.210;2023-03-01T15:31:28;35.00;;;8.25;;
68792;SDS011;55778;54.346;10.210;2023-03-01T15:36:41;33.03;;;8.32;;
68792;SDS011;55778;54.346;10.210;2023-03-01T15:41:58;57.45;;;10.07;;
68792;SDS011;55778;54.346;10.210;2023-03-01T15:44:28;33.75;;;9.75;;
68792;SDS011;55778;54.346;10.210;2023-03-01T15:46:55;31.67;;;8.25;;
68792;SDS011;55778;54.346;10.210;2023-03-01T15:51:56;42.72;;;8.38;;
68792;SDS011;55778;54.346;10.210;2023-03-01T15:54:22;28.92;;;8.30;;
68792;SDS011;55778;54.346;10.210;2023-03-01T15:56:49;19.92;;;7.10;;
68792;SDS011;55778;54.346;10.210;2023-03-01T15:59:16;37.72;;;8.60;;
68792;SDS011;55778;54.346;10.210;2023-03-01T16:01:42;24.50;;;8.13;;
68792;SDS011;55778;54.346;10.210;2023-03-01T16:04:11;21.90;;;7.13;;
68792;SDS011;55778;54.346;10.210;2023-03-01T16:06:41;19.75;;;7.63;;
68792;SDS011;55778;54.346;10.210;2023-03-01T16:09:06;24.25;;;8.48;;
68792;SDS011;55778;54.346;10.210;2023-03-01T16:11:32;22.33;;;8.68;;
68792;SDS011;55778;54.346;10.210;2023-03-01T16:13:59;17.08;;;7.18;;
68792;SDS011;55778;54.346;10.210;2023-03-01T16:16:24;20.15;;;7.63;;
68792;SDS011;55778;54.346;10.210;2023-03-01T16:18:50;21.00;;;7.57;;
68792;SDS011;55778;54.346;10.210;2023-03-01T16:21:22;20.23;;;7.32;;
68792;SDS011;55778;54.346;10.210;2023-03-01T16:23:49;21.55;;;8.27;;
68792;SDS011;55778;54.346;10.210;2023-03-01T16:26:16;18.95;;;7.47;;
68792;SDS011;55778;54.346;10.210;2023-03-01T16:28:42;19.25;;;6.78;;
68792;SDS011;55778;54.346;10.210;2023-03-01T16:31:08;19.77;;;7.10;;